sensor_id;sensor_type;location;lat;lon;timestamp;P1;durP1;ratioP1;P2;durP2;ratioP2
44228;SDS011;29904;51.058;5.378;2023-09-18T00:00:50;7.13;;;3.63;;
44228;SDS011;29904;51.058;5.378;2023-09-18T00:03:19;5.15;;;3.10;;
44228;SDS011;29904;51.058;5.378;2023-09-18T00:05:46;7.10;;;3.20;;
44228;SDS011;29904;51.058;5.378;2023-09-18T00:08:15;6.97;;;3.37;;
44228;SDS011;29904;51.058;5.378;2023-09-18T00:10:42;4.43;;;3.17;;
44228;SDS011;29904;51.058;5.378;2023-09-18T00:13:11;5.00;;;3.40;;
44228;SDS011;29904;51.058;5.378;2023-09-18T00:15:36;7.77;;;3.57;;
44228;SDS011;29904;51.058;5.378;2023-09-18T00:18:03;5.47;;;3.50;;
44228;SDS011;29904;51.058;5.378;2023-09-18T00:20:30;4.53;;;3.10;;
44228;SDS011;29904;51.058;5.378;2023-09-18T00:22:57;4.95;;;3.20;;
44228;SDS011;29904;51.058;5.378;2023-09-18T00:25:23;5.13;;;3.30;;
44228;SDS011;29904;51.058;5.378;2023-09-18T00:27:49;4.97;;;3.40;;
44228;SDS011;29904;51.058;5.378;2023-09-18T00:30:16;6.43;;;3.25;;
44228;SDS011;29904;51.058;5.378;2023-09-18T00:32:42;4.28;;;3.00;;
44228;SDS011;29904;51.058;5.378;2023-09-18T00:35:08;4.60;;;3.10;;
44228;SDS011;29904;51.058;5.378;2023-09-18T00:37:36;3.75;;;3.08;;
44228;SDS011;29904;51.058;5.378;2023-09-18T00:40:05;4.78;;;3.13;;
44228;SDS011;29904;51.058;5.378;2023-09-18T00:42:32;5.70;;;3.60;;
44228;SDS011;29904;51.058;5.378;2023-09-18T00:44:57;5.90;;;3.40;;
44228;SDS011;29904;51.058;5.378;2023-09-18T00:47:25;4.32;;;3.15;;
44228;SDS011;29904;51.058;5.378;2023-09-18T00:49:51;4.65;;;3.35;;
44228;SDS011;29904;51.058;5.378;2023-09-18T00:52:18;5.18;;;3.35;;
44228;SDS011;29904;51.058;5.378;2023-09-18T00:54:47;4.50;;;2.97;;
44228;SDS011;29904;51.058;5.378;2023-09-18T00:57:13;5.50;;;3.30;;
44228;SDS011;29904;51.058;5.378;2023-09-18T00:59:40;5.07;;;3.35;;
44228;SDS011;29904;51.058;5.378;2023-09-18T01:02:06;4.43;;;2.90;;
44228;SDS011;29904;51.058;5.378;2023-09-18T01:04:32;5.10;;;3.00;;
44228;SDS011;29904;51.058;5.378;2023-09-18T01:06:59;5.32;;;3.20;;
44228;SDS011;29904;51.058;5.378;2023-09-18T01:09:29;3.70;;;3.03;;
44228;SDS011;29904;51.058;5.378;2023-09-18T01:16:58;6.20;;;3.60;;
44228;SDS011;29904;51.058;5.378;2023-09-18T01:22:12;5.82;;;2.88;;
44228;SDS011;29904;51.058;5.378;2023-09-18T01:24:40;5.82;;;3.35;;
44228;SDS011;29904;51.058;5.378;2023-09-18T01:27:09;6.57;;;3.40;;
44228;SDS011;29904;51.058;5.378;2023-09-18T01:29:38;7.18;;;3.55;;
44228;SDS011;29904;51.058;5.378;2023-09-18T01:32:04;6.07;;;3.22;;
44228;SDS011;29904;51.058;5.378;2023-09-18T01:34:34;5.90;;;3.15;;
44228;SDS011;29904;51.058;5.378;2023-09-18T01:37:05;5.65;;;3.20;;
44228;SDS011;29904;51.058;5.378;2023-09-18T01:39:34;5.57;;;3.20;;
44228;SDS011;29904;51.058;5.378;2023-09-18T01:42:02;5.85;;;3.25;;
44228;SDS011;29904;51.058;5.378;2023-09-18T01:44:30;6.75;;;3.30;;
44228;SDS011;29904;51.058;5.378;2023-09-18T01:46:58;6.63;;;3.42;;
44228;SDS011;29904;51.058;5.378;2023-09-18T01:52:02;9.23;;;3.70;;
44228;SDS011;29904;51.058;5.378;2023-09-18T01:54:29;6.85;;;3.10;;
44228;SDS011;29904;51.058;5.378;2023-09-18T01:56:56;6.03;;;3.20;;
44228;SDS011;29904;51.058;5.378;2023-09-18T01:59:22;7.50;;;3.63;;
44228;SDS011;29904;51.058;5.378;2023-09-18T02:01:49;9.47;;;3.57;;
44228;SDS011;29904;51.058;5.378;2023-09-18T02:04:15;8.52;;;4.10;;
44228;SDS011;29904;51.058;5.378;2023-09-18T02:06:43;7.28;;;3.42;;
44228;SDS011;29904;51.058;5.378;2023-09-18T02:09:09;11.73;;;3.63;;
44228;SDS011;29904;51.058;5.378;2023-09-18T02:11:37;7.25;;;3.22;;
44228;SDS011;29904;51.058;5.378;2023-09-18T02:14:04;8.95;;;3.60;;
44228;SDS011;29904;51.058;5.378;2023-09-18T02:16:30;11.43;;;3.90;;
44228;SDS011;29904;51.058;5.378;2023-09-18T02:18:59;8.85;;;3.08;;
44228;SDS011;29904;51.058;5.378;2023-09-18T02:21:25;8.48;;;3.40;;
44228;SDS011;29904;51.058;5.378;2023-09-18T02:23:51;8.15;;;3.13;;
44228;SDS011;29904;51.058;5.378;2023-09-18T02:26:18;9.32;;;3.53;;
44228;SDS011;29904;51.058;5.378;2023-09-18T02:28:44;8.00;;;3.22;;
44228;SDS011;29904;51.058;5.378;2023-09-18T02:31:10;5.97;;;3.00;;
44228;SDS011;29904;51.058;5.378;2023-09-18T02:33:36;6.53;;;2.97;;
44228;SDS011;29904;51.058;5.378;2023-09-18T02:36:05;7.88;;;3.15;;
44228;SDS011;29904;51.058;5.378;2023-09-18T02:38:30;6.40;;;2.67;;
44228;SDS011;29904;51.058;5.378;2023-09-18T02:40:57;7.93;;;2.90;;
44228;SDS011;29904;51.058;5.378;2023-09-18T02:43:23;5.90;;;2.83;;
44228;SDS011;29904;51.058;5.378;2023-09-18T02:45:49;7.07;;;2.73;;
44228;SDS011;29904;51.058;5.378;2023-09-18T02:48:15;7.13;;;2.83;;
44228;SDS011;29904;51.058;5.378;2023-09-18T02:50:41;7.90;;;2.87;;
44228;SDS011;29904;51.058;5.378;2023-09-18T02:53:07;6.00;;;3.08;;
44228;SDS011;29904;51.058;5.378;2023-09-18T02:55:41;6.32;;;3.10;;
44228;SDS011;29904;51.058;5.378;2023-09-18T02:58:07;5.33;;;2.60;;
44228;SDS011;29904;51.058;5.378;2023-09-18T03:00:34;7.00;;;3.17;;
44228;SDS011;29904;51.058;5.378;2023-09-18T03:02:59;6.22;;;3.03;;
44228;SDS011;29904;51.058;5.378;2023-09-18T03:05:27;5.87;;;2.50;;
44228;SDS011;29904;51.058;5.378;2023-09-18T03:07:53;5.80;;;2.22;;
44228;SDS011;29904;51.058;5.378;2023-09-18T03:10:18;5.10;;;1.93;;
44228;SDS011;29904;51.058;5.378;2023-09-18T03:12:47;4.88;;;2.10;;
44228;SDS011;29904;51.058;5.378;2023-09-18T03:15:13;4.43;;;1.77;;
44228;SDS011;29904;51.058;5.378;2023-09-18T03:17:38;4.00;;;2.00;;
44228;SDS011;29904;51.058;5.378;2023-09-18T03:20:07;4.95;;;2.00;;
44228;SDS011;29904;51.058;5.378;2023-09-18T03:22:34;3.80;;;1.87;;
44228;SDS011;29904;51.058;5.378;2023-09-18T03:25:00;3.42;;;1.80;;
44228;SDS011;29904;51.058;5.378;2023-09-18T03:27:28;6.68;;;2.00;;
44228;SDS011;29904;51.058;5.378;2023-09-18T03:29:54;3.03;;;1.77;;
44228;SDS011;29904;51.058;5.378;2023-09-18T03:32:20;3.10;;;1.48;;
44228;SDS011;29904;51.058;5.378;2023-09-18T03:34:46;4.43;;;2.00;;
44228;SDS011;29904;51.058;5.378;2023-09-18T03:37:15;3.53;;;1.50;;
44228;SDS011;29904;51.058;5.378;2023-09-18T03:39:41;3.97;;;1.60;;
44228;SDS011;29904;51.058;5.378;2023-09-18T03:42:06;4.90;;;1.75;;
44228;SDS011;29904;51.058;5.378;2023-09-18T03:44:32;3.97;;;1.30;;
44228;SDS011;29904;51.058;5.378;2023-09-18T03:47:00;3.97;;;1.83;;
44228;SDS011;29904;51.058;5.378;2023-09-18T03:49:27;3.65;;;1.60;;
44228;SDS011;29904;51.058;5.378;2023-09-18T03:51:53;3.72;;;1.50;;
44228;SDS011;29904;51.058;5.378;2023-09-18T03:54:20;2.92;;;1.88;;
44228;SDS011;29904;51.058;5.378;2023-09-18T03:56:46;4.63;;;1.65;;
44228;SDS011;29904;51.058;5.378;2023-09-18T03:59:12;3.83;;;1.50;;
44228;SDS011;29904;51.058;5.378;2023-09-18T04:01:38;4.43;;;1.50;;
44228;SDS011;29904;51.058;5.378;2023-09-18T04:04:04;2.67;;;1.30;;
44228;SDS011;29904;51.058;5.378;2023-09-18T04:06:40;3.67;;;1.55;;
44228;SDS011;29904;51.058;5.378;2023-09-18T04:09:07;3.38;;;1.52;;
44228;SDS011;29904;51.058;5.378;2023-09-18T04:11:32;4.00;;;1.43;;
44228;SDS011;29904;51.058;5.378;2023-09-18T04:14:00;4.05;;;1.45;;
44228;SDS011;29904;51.058;5.378;2023-09-18T04:16:28;3.50;;;1.40;;
44228;SDS011;29904;51.058;5.378;2023-09-18T04:18:55;5.03;;;1.75;;
44228;SDS011;29904;51.058;5.378;2023-09-18T04:21:21;3.17;;;1.40;;
44228;SDS011;29904;51.058;5.378;2023-09-18T04:23:47;4.95;;;1.80;;
44228;SDS011;29904;51.058;5.378;2023-09-18T04:26:13;3.47;;;1.60;;
44228;SDS011;29904;51.058;5.378;2023-09-18T04:28:45;2.57;;;1.40;;
44228;SDS011;29904;51.058;5.378;2023-09-18T04:31:13;3.90;;;1.45;;
44228;SDS011;29904;51.058;5.378;2023-09-18T04:33:38;4.30;;;1.42;;
44228;SDS011;29904;51.058;5.378;2023-09-18T04:36:04;3.63;;;1.53;;
44228;SDS011;29904;51.058;5.378;2023-09-18T04:38:32;3.40;;;1.30;;
44228;SDS011;29904;51.058;5.378;2023-09-18T04:40:58;4.57;;;1.50;;
44228;SDS011;29904;51.058;5.378;2023-09-18T04:43:24;3.40;;;1.60;;
44228;SDS011;29904;51.058;5.378;2023-09-18T04:45:54;3.35;;;1.55;;
44228;SDS011;29904;51.058;5.378;2023-09-18T04:48:19;4.40;;;1.30;;
44228;SDS011;29904;51.058;5.378;2023-09-18T04:50:45;3.47;;;1.57;;
44228;SDS011;29904;51.058;5.378;2023-09-18T04:53:12;3.03;;;1.40;;
44228;SDS011;29904;51.058;5.378;2023-09-18T04:55:38;3.42;;;1.40;;
44228;SDS011;29904;51.058;5.378;2023-09-18T04:58:03;3.57;;;1.30;;
44228;SDS011;29904;51.058;5.378;2023-09-18T05:00:30;4.53;;;1.27;;
44228;SDS011;29904;51.058;5.378;2023-09-18T05:02:57;2.28;;;1.20;;
44228;SDS011;29904;51.058;5.378;2023-09-18T05:05:28;3.80;;;1.20;;
44228;SDS011;29904;51.058;5.378;2023-09-18T05:07:54;3.03;;;1.35;;
44228;SDS011;29904;51.058;5.378;2023-09-18T05:10:22;1.80;;;1.00;;
44228;SDS011;29904;51.058;5.378;2023-09-18T05:12:48;3.60;;;1.30;;
44228;SDS011;29904;51.058;5.378;2023-09-18T05:15:15;3.85;;;1.10;;
44228;SDS011;29904;51.058;5.378;2023-09-18T05:17:45;3.45;;;1.20;;
44228;SDS011;29904;51.058;5.378;2023-09-18T05:20:12;2.72;;;1.20;;
44228;SDS011;29904;51.058;5.378;2023-09-18T05:22:41;3.50;;;1.30;;
44228;SDS011;29904;51.058;5.378;2023-09-18T05:25:10;3.38;;;1.30;;
44228;SDS011;29904;51.058;5.378;2023-09-18T05:27:36;3.35;;;1.15;;
44228;SDS011;29904;51.058;5.378;2023-09-18T05:30:13;2.40;;;1.00;;
44228;SDS011;29904;51.058;5.378;2023-09-18T05:32:43;2.53;;;1.10;;
44228;SDS011;29904;51.058;5.378;2023-09-18T05:35:10;2.95;;;1.10;;
44228;SDS011;29904;51.058;5.378;2023-09-18T05:37:38;3.20;;;1.20;;
44228;SDS011;29904;51.058;5.378;2023-09-18T05:40:07;2.45;;;1.20;;
44228;SDS011;29904;51.058;5.378;2023-09-18T05:42:35;2.10;;;1.00;;
44228;SDS011;29904;51.058;5.378;2023-09-18T05:45:01;2.67;;;1.00;;
44228;SDS011;29904;51.058;5.378;2023-09-18T05:47:29;3.95;;;1.10;;
44228;SDS011;29904;51.058;5.378;2023-09-18T05:49:57;2.08;;;1.00;;
44228;SDS011;29904;51.058;5.378;2023-09-18T05:52:23;4.37;;;1.13;;
44228;SDS011;29904;51.058;5.378;2023-09-18T05:54:49;2.55;;;1.27;;
44228;SDS011;29904;51.058;5.378;2023-09-18T05:57:15;3.17;;;1.00;;
44228;SDS011;29904;51.058;5.378;2023-09-18T05:59:41;1.60;;;0.88;;
44228;SDS011;29904;51.058;5.378;2023-09-18T06:02:11;2.85;;;1.10;;
44228;SDS011;29904;51.058;5.378;2023-09-18T06:04:39;2.63;;;1.00;;
44228;SDS011;29904;51.058;5.378;2023-09-18T06:07:04;2.13;;;1.10;;
44228;SDS011;29904;51.058;5.378;2023-09-18T06:09:30;1.93;;;0.97;;
44228;SDS011;29904;51.058;5.378;2023-09-18T06:11:57;2.53;;;1.00;;
44228;SDS011;29904;51.058;5.378;2023-09-18T06:14:24;3.03;;;1.10;;
44228;SDS011;29904;51.058;5.378;2023-09-18T06:16:50;2.38;;;0.90;;
44228;SDS011;29904;51.058;5.378;2023-09-18T06:19:16;3.85;;;1.00;;
44228;SDS011;29904;51.058;5.378;2023-09-18T06:21:44;2.20;;;0.88;;
44228;SDS011;29904;51.058;5.378;2023-09-18T06:24:10;3.40;;;0.88;;
44228;SDS011;29904;51.058;5.378;2023-09-18T06:26:36;4.93;;;0.98;;
44228;SDS011;29904;51.058;5.378;2023-09-18T06:29:02;3.33;;;0.87;;
44228;SDS011;29904;51.058;5.378;2023-09-18T06:31:28;2.33;;;0.80;;
44228;SDS011;29904;51.058;5.378;2023-09-18T06:33:56;3.47;;;1.10;;
44228;SDS011;29904;51.058;5.378;2023-09-18T06:36:22;4.10;;;1.00;;
44228;SDS011;29904;51.058;5.378;2023-09-18T06:38:48;2.63;;;1.02;;
44228;SDS011;29904;51.058;5.378;2023-09-18T06:41:15;4.07;;;0.98;;
44228;SDS011;29904;51.058;5.378;2023-09-18T06:43:41;2.60;;;1.00;;
44228;SDS011;29904;51.058;5.378;2023-09-18T06:46:07;1.60;;;0.90;;
44228;SDS011;29904;51.058;5.378;2023-09-18T06:48:34;3.38;;;0.95;;
44228;SDS011;29904;51.058;5.378;2023-09-18T06:51:02;2.33;;;0.73;;
44228;SDS011;29904;51.058;5.378;2023-09-18T06:53:28;3.30;;;0.80;;
44228;SDS011;29904;51.058;5.378;2023-09-18T06:55:54;3.17;;;0.93;;
44228;SDS011;29904;51.058;5.378;2023-09-18T06:58:21;1.45;;;0.70;;
44228;SDS011;29904;51.058;5.378;2023-09-18T07:00:47;4.18;;;1.00;;
44228;SDS011;29904;51.058;5.378;2023-09-18T07:03:15;3.47;;;0.90;;
44228;SDS011;29904;51.058;5.378;2023-09-18T07:05:41;2.15;;;0.82;;
44228;SDS011;29904;51.058;5.378;2023-09-18T07:08:08;1.73;;;0.70;;
44228;SDS011;29904;51.058;5.378;2023-09-18T07:10:37;2.47;;;0.90;;
44228;SDS011;29904;51.058;5.378;2023-09-18T07:13:05;3.78;;;0.98;;
44228;SDS011;29904;51.058;5.378;2023-09-18T07:15:31;2.33;;;0.70;;
44228;SDS011;29904;51.058;5.378;2023-09-18T07:17:57;2.35;;;0.85;;
44228;SDS011;29904;51.058;5.378;2023-09-18T07:20:22;1.73;;;0.65;;
44228;SDS011;29904;51.058;5.378;2023-09-18T07:22:49;3.00;;;0.80;;
44228;SDS011;29904;51.058;5.378;2023-09-18T07:25:15;1.70;;;0.73;;
44228;SDS011;29904;51.058;5.378;2023-09-18T07:27:43;2.15;;;0.82;;
44228;SDS011;29904;51.058;5.378;2023-09-18T07:30:12;2.75;;;0.80;;
44228;SDS011;29904;51.058;5.378;2023-09-18T07:32:42;2.65;;;0.82;;
44228;SDS011;29904;51.058;5.378;2023-09-18T07:35:09;2.45;;;0.80;;
44228;SDS011;29904;51.058;5.378;2023-09-18T07:37:35;5.13;;;0.82;;
44228;SDS011;29904;51.058;5.378;2023-09-18T07:40:05;3.83;;;1.05;;
44228;SDS011;29904;51.058;5.378;2023-09-18T07:42:32;2.30;;;0.80;;
44228;SDS011;29904;51.058;5.378;2023-09-18T07:44:58;3.27;;;0.80;;
44228;SDS011;29904;51.058;5.378;2023-09-18T07:47:24;1.40;;;0.73;;
44228;SDS011;29904;51.058;5.378;2023-09-18T07:49:51;1.95;;;0.60;;
44228;SDS011;29904;51.058;5.378;2023-09-18T07:52:19;3.50;;;0.82;;
44228;SDS011;29904;51.058;5.378;2023-09-18T07:54:45;3.03;;;0.80;;
44228;SDS011;29904;51.058;5.378;2023-09-18T07:57:11;1.98;;;0.60;;
44228;SDS011;29904;51.058;5.378;2023-09-18T07:59:37;2.20;;;0.70;;
44228;SDS011;29904;51.058;5.378;2023-09-18T08:02:04;2.10;;;0.85;;
44228;SDS011;29904;51.058;5.378;2023-09-18T08:04:32;2.13;;;0.98;;
44228;SDS011;29904;51.058;5.378;2023-09-18T08:07:00;2.30;;;0.80;;
44228;SDS011;29904;51.058;5.378;2023-09-18T08:09:25;3.20;;;0.83;;
44228;SDS011;29904;51.058;5.378;2023-09-18T08:11:54;2.63;;;0.70;;
44228;SDS011;29904;51.058;5.378;2023-09-18T08:14:22;2.40;;;1.00;;
44228;SDS011;29904;51.058;5.378;2023-09-18T08:16:48;2.00;;;1.00;;
44228;SDS011;29904;51.058;5.378;2023-09-18T08:19:22;2.42;;;0.80;;
44228;SDS011;29904;51.058;5.378;2023-09-18T08:21:51;2.75;;;0.90;;
44228;SDS011;29904;51.058;5.378;2023-09-18T08:24:24;1.75;;;0.75;;
44228;SDS011;29904;51.058;5.378;2023-09-18T08:26:50;1.33;;;0.73;;
44228;SDS011;29904;51.058;5.378;2023-09-18T08:29:16;2.00;;;0.80;;
44228;SDS011;29904;51.058;5.378;2023-09-18T08:31:43;2.72;;;0.70;;
44228;SDS011;29904;51.058;5.378;2023-09-18T08:34:09;2.97;;;0.80;;
44228;SDS011;29904;51.058;5.378;2023-09-18T08:36:35;3.50;;;1.00;;
44228;SDS011;29904;51.058;5.378;2023-09-18T08:39:01;3.47;;;1.00;;
44228;SDS011;29904;51.058;5.378;2023-09-18T08:41:29;3.10;;;0.80;;
44228;SDS011;29904;51.058;5.378;2023-09-18T08:44:01;2.43;;;0.90;;
44228;SDS011;29904;51.058;5.378;2023-09-18T08:46:29;3.28;;;0.88;;
44228;SDS011;29904;51.058;5.378;2023-09-18T08:48:57;1.77;;;0.80;;
44228;SDS011;29904;51.058;5.378;2023-09-18T08:51:23;2.25;;;0.90;;
44228;SDS011;29904;51.058;5.378;2023-09-18T08:53:49;2.00;;;0.90;;
44228;SDS011;29904;51.058;5.378;2023-09-18T08:56:18;2.80;;;0.98;;
44228;SDS011;29904;51.058;5.378;2023-09-18T08:58:45;2.50;;;0.90;;
44228;SDS011;29904;51.058;5.378;2023-09-18T09:01:12;4.82;;;0.80;;
44228;SDS011;29904;51.058;5.378;2023-09-18T09:03:39;3.17;;;1.00;;
44228;SDS011;29904;51.058;5.378;2023-09-18T09:06:07;2.17;;;0.90;;
44228;SDS011;29904;51.058;5.378;2023-09-18T09:08:34;2.70;;;0.93;;
44228;SDS011;29904;51.058;5.378;2023-09-18T09:11:00;3.70;;;1.08;;
44228;SDS011;29904;51.058;5.378;2023-09-18T09:13:26;1.80;;;0.85;;
44228;SDS011;29904;51.058;5.378;2023-09-18T09:15:53;3.05;;;0.98;;
44228;SDS011;29904;51.058;5.378;2023-09-18T09:18:25;2.70;;;0.90;;
44228;SDS011;29904;51.058;5.378;2023-09-18T09:20:56;4.83;;;1.03;;
44228;SDS011;29904;51.058;5.378;2023-09-18T09:26:13;1.93;;;0.80;;
44228;SDS011;29904;51.058;5.378;2023-09-18T09:28:44;1.83;;;0.85;;
44228;SDS011;29904;51.058;5.378;2023-09-18T09:31:11;3.65;;;1.00;;
44228;SDS011;29904;51.058;5.378;2023-09-18T09:33:55;2.25;;;0.80;;
44228;SDS011;29904;51.058;5.378;2023-09-18T09:36:22;3.90;;;1.00;;
44228;SDS011;29904;51.058;5.378;2023-09-18T09:38:57;4.03;;;1.00;;
44228;SDS011;29904;51.058;5.378;2023-09-18T09:41:23;2.65;;;1.02;;
44228;SDS011;29904;51.058;5.378;2023-09-18T09:43:51;2.37;;;1.00;;
44228;SDS011;29904;51.058;5.378;2023-09-18T09:46:20;4.93;;;1.20;;
44228;SDS011;29904;51.058;5.378;2023-09-18T09:49:05;3.90;;;1.30;;
44228;SDS011;29904;51.058;5.378;2023-09-18T09:51:31;4.18;;;1.20;;
44228;SDS011;29904;51.058;5.378;2023-09-18T09:53:59;3.65;;;1.25;;
44228;SDS011;29904;51.058;5.378;2023-09-18T09:56:41;3.28;;;1.10;;
44228;SDS011;29904;51.058;5.378;2023-09-18T09:59:10;4.97;;;1.30;;
44228;SDS011;29904;51.058;5.378;2023-09-18T10:01:37;3.67;;;1.20;;
44228;SDS011;29904;51.058;5.378;2023-09-18T10:04:13;2.60;;;0.90;;
44228;SDS011;29904;51.058;5.378;2023-09-18T10:06:43;3.97;;;1.25;;
44228;SDS011;29904;51.058;5.378;2023-09-18T10:09:12;2.30;;;1.15;;
44228;SDS011;29904;51.058;5.378;2023-09-18T10:11:40;3.70;;;1.40;;
44228;SDS011;29904;51.058;5.378;2023-09-18T10:14:12;3.60;;;1.07;;
44228;SDS011;29904;51.058;5.378;2023-09-18T10:16:41;3.33;;;1.03;;
44228;SDS011;29904;51.058;5.378;2023-09-18T10:24:20;2.80;;;1.23;;
44228;SDS011;29904;51.058;5.378;2023-09-18T10:26:55;2.42;;;1.15;;
44228;SDS011;29904;51.058;5.378;2023-09-18T10:29:25;3.20;;;1.10;;
44228;SDS011;29904;51.058;5.378;2023-09-18T10:31:52;3.63;;;1.10;;
44228;SDS011;29904;51.058;5.378;2023-09-18T10:34:19;2.85;;;1.10;;
44228;SDS011;29904;51.058;5.378;2023-09-18T10:36:49;3.27;;;1.10;;
44228;SDS011;29904;51.058;5.378;2023-09-18T10:39:18;3.03;;;1.30;;
44228;SDS011;29904;51.058;5.378;2023-09-18T10:41:47;2.47;;;1.20;;
44228;SDS011;29904;51.058;5.378;2023-09-18T10:44:16;3.47;;;1.17;;
44228;SDS011;29904;51.058;5.378;2023-09-18T10:46:43;5.47;;;1.40;;
44228;SDS011;29904;51.058;5.378;2023-09-18T10:49:10;3.00;;;1.20;;
44228;SDS011;29904;51.058;5.378;2023-09-18T10:51:37;3.55;;;1.10;;
44228;SDS011;29904;51.058;5.378;2023-09-18T10:54:10;2.60;;;1.20;;
44228;SDS011;29904;51.058;5.378;2023-09-18T10:56:36;2.75;;;1.00;;
44228;SDS011;29904;51.058;5.378;2023-09-18T10:59:06;3.03;;;1.17;;
44228;SDS011;29904;51.058;5.378;2023-09-18T11:01:32;2.43;;;1.10;;
44228;SDS011;29904;51.058;5.378;2023-09-18T11:04:01;6.38;;;1.30;;
44228;SDS011;29904;51.058;5.378;2023-09-18T11:09:20;3.08;;;1.10;;
44228;SDS011;29904;51.058;5.378;2023-09-18T11:12:14;3.25;;;1.20;;
44228;SDS011;29904;51.058;5.378;2023-09-18T11:17:27;3.45;;;1.05;;
44228;SDS011;29904;51.058;5.378;2023-09-18T11:28:06;3.97;;;1.10;;
44228;SDS011;29904;51.058;5.378;2023-09-18T11:30:36;1.77;;;1.13;;
44228;SDS011;29904;51.058;5.378;2023-09-18T11:33:12;2.53;;;1.10;;
44228;SDS011;29904;51.058;5.378;2023-09-18T11:35:39;4.03;;;1.17;;
44228;SDS011;29904;51.058;5.378;2023-09-18T11:38:18;3.92;;;1.17;;
44228;SDS011;29904;51.058;5.378;2023-09-18T11:40:48;3.47;;;1.33;;
44228;SDS011;29904;51.058;5.378;2023-09-18T11:43:21;3.55;;;1.20;;
44228;SDS011;29904;51.058;5.378;2023-09-18T11:45:59;3.70;;;1.33;;
44228;SDS011;29904;51.058;5.378;2023-09-18T11:48:29;2.72;;;1.10;;
44228;SDS011;29904;51.058;5.378;2023-09-18T11:50:59;3.30;;;0.90;;
44228;SDS011;29904;51.058;5.378;2023-09-18T11:53:28;2.55;;;1.00;;
44228;SDS011;29904;51.058;5.378;2023-09-18T11:55:54;4.03;;;0.90;;
44228;SDS011;29904;51.058;5.378;2023-09-18T11:58:22;3.97;;;0.90;;
44228;SDS011;29904;51.058;5.378;2023-09-18T12:00:50;2.50;;;0.95;;
44228;SDS011;29904;51.058;5.378;2023-09-18T12:03:20;2.37;;;0.90;;
44228;SDS011;29904;51.058;5.378;2023-09-18T12:05:53;4.05;;;1.00;;
44228;SDS011;29904;51.058;5.378;2023-09-18T12:08:24;3.10;;;0.93;;
44228;SDS011;29904;51.058;5.378;2023-09-18T12:10:53;2.13;;;0.90;;
44228;SDS011;29904;51.058;5.378;2023-09-18T12:13:19;3.55;;;1.30;;
44228;SDS011;29904;51.058;5.378;2023-09-18T12:15:45;2.67;;;1.00;;
44228;SDS011;29904;51.058;5.378;2023-09-18T12:18:15;2.58;;;1.00;;
44228;SDS011;29904;51.058;5.378;2023-09-18T12:20:44;3.08;;;1.20;;
44228;SDS011;29904;51.058;5.378;2023-09-18T12:23:11;2.25;;;1.02;;
44228;SDS011;29904;51.058;5.378;2023-09-18T12:25:38;5.75;;;1.15;;
44228;SDS011;29904;51.058;5.378;2023-09-18T12:28:05;2.00;;;0.95;;
44228;SDS011;29904;51.058;5.378;2023-09-18T12:30:32;1.83;;;0.90;;
44228;SDS011;29904;51.058;5.378;2023-09-18T12:32:59;4.97;;;1.10;;
44228;SDS011;29904;51.058;5.378;2023-09-18T12:35:29;2.42;;;1.02;;
44228;SDS011;29904;51.058;5.378;2023-09-18T12:38:01;1.83;;;0.70;;
44228;SDS011;29904;51.058;5.378;2023-09-18T12:40:38;2.25;;;0.90;;
44228;SDS011;29904;51.058;5.378;2023-09-18T12:43:06;2.75;;;0.90;;
44228;SDS011;29904;51.058;5.378;2023-09-18T12:45:32;2.63;;;1.00;;
44228;SDS011;29904;51.058;5.378;2023-09-18T12:48:00;2.63;;;0.90;;
44228;SDS011;29904;51.058;5.378;2023-09-18T12:50:26;2.58;;;0.93;;
44228;SDS011;29904;51.058;5.378;2023-09-18T12:52:52;2.87;;;1.00;;
44228;SDS011;29904;51.058;5.378;2023-09-18T12:55:21;3.38;;;1.00;;
44228;SDS011;29904;51.058;5.378;2023-09-18T12:57:49;3.47;;;1.00;;
44228;SDS011;29904;51.058;5.378;2023-09-18T13:00:18;3.70;;;1.00;;
44228;SDS011;29904;51.058;5.378;2023-09-18T13:02:46;2.10;;;1.00;;
44228;SDS011;29904;51.058;5.378;2023-09-18T13:05:12;2.83;;;0.93;;
44228;SDS011;29904;51.058;5.378;2023-09-18T13:07:44;2.40;;;0.93;;
44228;SDS011;29904;51.058;5.378;2023-09-18T13:10:10;1.98;;;0.90;;
44228;SDS011;29904;51.058;5.378;2023-09-18T13:15:06;3.22;;;0.80;;
44228;SDS011;29904;51.058;5.378;2023-09-18T13:17:44;1.90;;;0.90;;
44228;SDS011;29904;51.058;5.378;2023-09-18T13:22:40;1.95;;;1.05;;
44228;SDS011;29904;51.058;5.378;2023-09-18T13:25:08;2.17;;;0.75;;
44228;SDS011;29904;51.058;5.378;2023-09-18T13:27:38;2.35;;;0.93;;
44228;SDS011;29904;51.058;5.378;2023-09-18T13:30:05;2.25;;;0.90;;
44228;SDS011;29904;51.058;5.378;2023-09-18T13:32:34;4.32;;;0.90;;
44228;SDS011;29904;51.058;5.378;2023-09-18T13:35:05;2.80;;;0.77;;
44228;SDS011;29904;51.058;5.378;2023-09-18T13:37:32;3.80;;;0.90;;
44228;SDS011;29904;51.058;5.378;2023-09-18T13:39:58;2.10;;;0.90;;
44228;SDS011;29904;51.058;5.378;2023-09-18T13:42:28;2.58;;;0.80;;
44228;SDS011;29904;51.058;5.378;2023-09-18T13:44:58;3.60;;;0.90;;
44228;SDS011;29904;51.058;5.378;2023-09-18T13:47:29;2.00;;;0.80;;
44228;SDS011;29904;51.058;5.378;2023-09-18T13:49:55;2.53;;;0.73;;
44228;SDS011;29904;51.058;5.378;2023-09-18T13:52:25;3.00;;;1.00;;
44228;SDS011;29904;51.058;5.378;2023-09-18T13:54:52;2.30;;;0.70;;
44228;SDS011;29904;51.058;5.378;2023-09-18T13:57:21;3.47;;;0.90;;
44228;SDS011;29904;51.058;5.378;2023-09-18T13:59:48;2.40;;;0.70;;
44228;SDS011;29904;51.058;5.378;2023-09-18T14:02:14;1.67;;;0.88;;
44228;SDS011;29904;51.058;5.378;2023-09-18T14:04:41;1.92;;;0.80;;
44228;SDS011;29904;51.058;5.378;2023-09-18T14:07:08;3.28;;;0.80;;
44228;SDS011;29904;51.058;5.378;2023-09-18T14:09:34;3.33;;;0.90;;
44228;SDS011;29904;51.058;5.378;2023-09-18T14:12:00;1.98;;;0.90;;
44228;SDS011;29904;51.058;5.378;2023-09-18T14:14:28;3.28;;;0.90;;
44228;SDS011;29904;51.058;5.378;2023-09-18T14:16:54;2.00;;;0.80;;
44228;SDS011;29904;51.058;5.378;2023-09-18T14:19:20;3.20;;;0.80;;
44228;SDS011;29904;51.058;5.378;2023-09-18T14:21:46;1.65;;;0.70;;
44228;SDS011;29904;51.058;5.378;2023-09-18T14:24:14;2.80;;;0.70;;
44228;SDS011;29904;51.058;5.378;2023-09-18T14:26:43;2.83;;;0.80;;
44228;SDS011;29904;51.058;5.378;2023-09-18T14:29:10;1.73;;;0.82;;
44228;SDS011;29904;51.058;5.378;2023-09-18T14:31:36;1.58;;;0.80;;
44228;SDS011;29904;51.058;5.378;2023-09-18T14:34:02;2.73;;;0.77;;
44228;SDS011;29904;51.058;5.378;2023-09-18T14:36:29;1.63;;;0.80;;
44228;SDS011;29904;51.058;5.378;2023-09-18T14:38:55;3.50;;;0.80;;
44228;SDS011;29904;51.058;5.378;2023-09-18T14:41:24;1.57;;;0.70;;
44228;SDS011;29904;51.058;5.378;2023-09-18T14:43:50;1.57;;;0.73;;
44228;SDS011;29904;51.058;5.378;2023-09-18T14:46:18;2.03;;;0.77;;
44228;SDS011;29904;51.058;5.378;2023-09-18T14:48:47;1.45;;;0.80;;
44228;SDS011;29904;51.058;5.378;2023-09-18T14:51:13;2.80;;;0.80;;
44228;SDS011;29904;51.058;5.378;2023-09-18T14:53:39;1.98;;;0.80;;
44228;SDS011;29904;51.058;5.378;2023-09-18T14:56:07;1.67;;;0.90;;
44228;SDS011;29904;51.058;5.378;2023-09-18T14:58:33;2.73;;;0.80;;
44228;SDS011;29904;51.058;5.378;2023-09-18T15:00:58;1.35;;;0.80;;
44228;SDS011;29904;51.058;5.378;2023-09-18T15:03:27;0.90;;;0.60;;
44228;SDS011;29904;51.058;5.378;2023-09-18T15:05:53;4.35;;;1.00;;
44228;SDS011;29904;51.058;5.378;2023-09-18T15:08:20;1.83;;;0.70;;
44228;SDS011;29904;51.058;5.378;2023-09-18T15:10:48;1.83;;;0.85;;
44228;SDS011;29904;51.058;5.378;2023-09-18T15:13:13;2.07;;;0.80;;
44228;SDS011;29904;51.058;5.378;2023-09-18T15:15:40;1.58;;;0.88;;
44228;SDS011;29904;51.058;5.378;2023-09-18T15:18:06;2.45;;;0.80;;
44228;SDS011;29904;51.058;5.378;2023-09-18T15:20:33;2.33;;;0.82;;
44228;SDS011;29904;51.058;5.378;2023-09-18T15:22:59;2.30;;;0.73;;
44228;SDS011;29904;51.058;5.378;2023-09-18T15:25:28;2.20;;;0.80;;
44228;SDS011;29904;51.058;5.378;2023-09-18T15:27:54;2.13;;;0.75;;